createdAt,value
2023-01-30T00:02:19.411Z,30.20
2023-01-30T00:07:24.183Z,30.20
2023-01-30T00:12:27.060Z,30.10
2023-01-30T00:17:29.940Z,30.10
2023-01-30T00:22:34.109Z,30.10
2023-01-30T00:27:36.916Z,30.10
2023-01-30T00:32:39.708Z,30.10
2023-01-30T00:37:43.869Z,30.20
2023-01-30T00:43:12.792Z,30.10
2023-01-30T00:48:15.754Z,30.10
2023-01-30T00:53:20.111Z,30.10
2023-01-30T01:04:45.509Z,30.00
2023-01-30T01:09:49.738Z,30.00
2023-01-30T01:14:52.590Z,30.00
2023-01-30T01:19:55.553Z,30.00
2023-01-30T01:24:59.797Z,30.10
2023-01-30T01:30:02.753Z,30.10
2023-01-30T01:35:06.509Z,30.10
2023-01-30T01:40:40.232Z,30.20
2023-01-30T01:45:43.561Z,30.10
2023-01-30T01:50:50.567Z,30.00
2023-01-30T01:55:57.929Z,30.00
2023-01-30T02:01:01.368Z,30.00
2023-01-30T02:06:05.652Z,30.40
2023-01-30T02:11:15.082Z,30.00
2023-01-30T02:16:18.683Z,30.00
2023-01-30T02:22:01.194Z,30.00
2023-01-30T02:27:18.429Z,30.00
2023-01-30T02:32:29.878Z,30.00
2023-01-30T02:37:47.640Z,30.00
2023-01-30T02:42:58.878Z,30.00
2023-01-30T02:48:06.016Z,30.00
2023-01-30T02:53:09.481Z,29.80
2023-01-30T02:58:13.158Z,29.70
2023-01-30T03:03:32.430Z,29.70
2023-01-30T03:08:43.568Z,29.70
2023-01-30T03:13:55.492Z,29.70
2023-01-30T03:19:01.270Z,29.70
2023-01-30T03:24:04.241Z,29.70
2023-01-30T03:29:07.316Z,29.80
2023-01-30T03:34:11.519Z,29.90
2023-01-30T03:39:14.497Z,29.90
2023-01-30T03:44:17.415Z,29.70
2023-01-30T03:49:21.708Z,29.70
2023-01-30T03:54:24.845Z,29.60
2023-01-30T03:59:27.732Z,29.60
2023-01-30T04:04:31.967Z,29.60
2023-01-30T04:09:34.847Z,29.70
2023-01-30T04:14:37.784Z,29.60
2023-01-30T04:19:42.012Z,29.70
2023-01-30T04:24:44.925Z,29.70
2023-01-30T04:29:47.754Z,29.70
2023-01-30T04:34:51.904Z,29.70
2023-01-30T04:39:54.768Z,29.70
2023-01-30T04:44:57.637Z,29.80
2023-01-30T04:50:01.869Z,29.80
2023-01-30T04:55:05.127Z,29.90
2023-01-30T05:00:09.688Z,30.00
2023-01-30T05:05:13.866Z,29.80
2023-01-30T05:10:17.157Z,29.90
2023-01-30T05:15:20.366Z,30.00
2023-01-30T05:20:25.395Z,29.90
2023-01-30T05:25:28.214Z,29.80
2023-01-30T05:30:31.098Z,29.60
2023-01-30T05:35:35.361Z,29.50
2023-01-30T05:40:38.239Z,29.50
2023-01-30T05:45:41.060Z,29.50
2023-01-30T05:50:45.405Z,29.60
2023-01-30T05:55:48.452Z,29.60
2023-01-30T06:00:51.437Z,29.60
2023-01-30T06:05:55.691Z,29.60
2023-01-30T06:11:01.712Z,29.60
2023-01-30T06:16:04.989Z,30.00
2023-01-30T06:21:10.002Z,29.70
2023-01-30T06:26:12.940Z,29.70
2023-01-30T06:31:16.360Z,29.70
2023-01-30T06:36:20.769Z,29.60
2023-01-30T06:41:23.669Z,29.60
2023-01-30T06:46:26.709Z,29.60
2023-01-30T06:51:32.508Z,29.60
2023-01-30T06:56:35.515Z,29.60
2023-01-30T07:01:38.820Z,29.60
2023-01-30T07:06:43.084Z,29.60
2023-01-30T07:11:47.217Z,29.70
2023-01-30T07:16:50.083Z,29.70
2023-01-30T07:21:54.301Z,29.70
2023-01-30T07:26:57.182Z,29.70
2023-01-30T07:32:00.169Z,29.60
2023-01-30T07:37:04.447Z,29.50
2023-01-30T07:42:07.486Z,29.60
2023-01-30T07:47:10.457Z,29.60
2023-01-30T07:52:14.919Z,29.60
2023-01-30T07:57:17.773Z,29.70
2023-01-30T08:02:20.630Z,29.90
2023-01-30T08:07:24.937Z,29.70
2023-01-30T08:12:27.826Z,29.80
2023-01-30T08:17:30.633Z,29.60
2023-01-30T08:22:34.835Z,29.60
2023-01-30T08:27:37.672Z,29.60
2023-01-30T08:32:40.490Z,29.70
2023-01-30T08:37:45.185Z,29.60
2023-01-30T08:42:48.141Z,29.50
2023-01-30T08:47:51.074Z,29.70
2023-01-30T08:52:55.550Z,29.80
2023-01-30T08:57:58.461Z,29.80
2023-01-30T09:03:01.973Z,29.80
2023-01-30T09:08:06.636Z,29.70
2023-01-30T09:13:10.611Z,29.60
2023-01-30T09:18:13.811Z,29.60
2023-01-30T09:23:18.437Z,29.60
2023-01-30T09:28:21.274Z,29.60
2023-01-30T09:33:24.312Z,29.70
2023-01-30T09:38:28.469Z,29.70
2023-01-30T09:43:53.691Z,29.60
2023-01-30T09:49:03.226Z,29.60
2023-01-30T09:54:21.960Z,29.70
2023-01-30T09:59:31.498Z,29.70
2023-01-30T10:04:38.040Z,29.60
2023-01-30T10:09:52.688Z,29.60
2023-01-30T10:15:06.515Z,29.70
2023-01-30T10:20:25.780Z,29.70
2023-01-30T10:25:33.975Z,29.80
2023-01-30T10:30:37.182Z,29.80
2023-01-30T10:35:43.901Z,30.10
2023-01-30T10:40:55.834Z,29.70
2023-01-30T10:46:05.449Z,29.70
2023-01-30T10:51:19.715Z,29.60
2023-01-30T10:56:32.753Z,29.60
2023-01-30T11:01:43.072Z,29.60
2023-01-30T11:06:46.328Z,29.60
2023-01-30T11:11:52.818Z,29.60
2023-01-30T11:16:56.791Z,29.60
2023-01-30T11:22:02.740Z,29.60
2023-01-30T11:27:13.351Z,29.70
2023-01-30T11:32:22.929Z,29.70
2023-01-30T11:37:31.750Z,29.60
2023-01-30T11:42:35.974Z,29.60
2023-01-30T11:47:43.236Z,29.50
2023-01-30T11:52:50.782Z,29.50
2023-01-30T11:57:59.520Z,29.50
2023-01-30T12:03:07.008Z,29.50
2023-01-30T12:08:40.313Z,29.60
2023-01-30T12:13:45.636Z,29.60
2023-01-30T12:18:57.291Z,29.60
2023-01-30T12:24:10.867Z,29.60
2023-01-30T12:29:25.391Z,29.60
2023-01-30T12:34:28.264Z,29.70
2023-01-30T12:39:43.390Z,29.70
2023-01-30T12:45:13.125Z,29.70
2023-01-30T12:50:24.767Z,29.80
2023-01-30T12:55:38.400Z,29.70
2023-01-30T13:00:59.787Z,29.70
2023-01-30T13:06:18.755Z,29.70
2023-01-30T13:11:35.718Z,29.60
2023-01-30T13:16:50.174Z,29.60
2023-01-30T13:22:01.275Z,29.60
2023-01-30T13:27:10.581Z,29.70
2023-01-30T13:32:19.042Z,29.60
2023-01-30T13:37:22.091Z,29.60
2023-01-30T13:42:31.550Z,29.60
2023-01-30T13:47:46.342Z,29.70
2023-01-30T13:52:55.570Z,29.70
2023-01-30T13:58:10.312Z,29.80
2023-01-30T14:03:30.506Z,29.70
2023-01-30T14:08:39.885Z,29.70
2023-01-30T14:13:53.831Z,29.80
2023-01-30T14:18:58.004Z,29.60
2023-01-30T14:24:03.113Z,29.60
2023-01-30T14:29:08.899Z,29.60
2023-01-30T14:34:47.955Z,29.60
2023-01-30T14:39:55.613Z,29.60
2023-01-30T14:45:04.639Z,29.60
2023-01-30T14:50:19.860Z,29.60
2023-01-30T14:55:29.403Z,29.70
2023-01-30T15:00:35.263Z,29.60
2023-01-30T15:05:44.328Z,29.60
2023-01-30T15:11:04.570Z,29.50
2023-01-30T15:16:28.069Z,29.60
2023-01-30T15:21:42.937Z,29.50
2023-01-30T15:26:56.049Z,29.60
2023-01-30T15:32:01.058Z,29.60
2023-01-30T15:37:03.935Z,29.60
2023-01-30T15:42:16.087Z,29.60
2023-01-30T15:47:52.183Z,29.50
2023-01-30T15:52:56.585Z,29.50
2023-01-30T15:58:04.968Z,29.50
2023-01-30T16:03:14.707Z,29.50
2023-01-30T16:08:23.549Z,29.50
2023-01-30T16:13:28.721Z,29.50
2023-01-30T16:18:36.292Z,29.50
2023-01-30T16:23:43.320Z,29.50
2023-01-30T16:28:47.586Z,29.50
2023-01-30T16:33:51.900Z,29.50
2023-01-30T16:38:55.814Z,29.40
2023-01-30T16:44:28.253Z,29.40
2023-01-30T16:49:45.432Z,29.40
2023-01-30T16:54:51.207Z,29.40
2023-01-30T16:59:56.331Z,29.40
2023-01-30T17:05:20.365Z,29.40
2023-01-30T17:10:52.607Z,29.50
2023-01-30T17:16:39.176Z,29.50
2023-01-30T17:21:48.936Z,29.50
2023-01-30T17:26:54.478Z,29.40
2023-01-30T17:31:59.333Z,29.40
2023-01-30T17:37:02.255Z,29.30
2023-01-30T17:42:06.681Z,29.30
2023-01-30T17:47:13.028Z,30.00
2023-01-30T17:52:15.950Z,30.00
2023-01-30T17:57:20.103Z,29.80
2023-01-30T18:02:24.317Z,29.50
2023-01-30T18:07:30.284Z,29.30
2023-01-30T18:12:33.220Z,29.10
2023-01-30T18:17:41.333Z,28.80
2023-01-30T18:22:44.412Z,28.70
2023-01-30T18:27:48.124Z,28.50
2023-01-30T18:32:53.907Z,28.40
2023-01-30T18:38:01.686Z,28.40
2023-01-30T18:43:05.515Z,28.80
2023-01-30T18:48:10.220Z,28.40
2023-01-30T18:53:13.019Z,28.40
2023-01-30T18:58:15.842Z,28.30
2023-01-30T19:03:20.065Z,28.20
2023-01-30T19:08:23.212Z,28.40
2023-01-30T19:13:36.562Z,28.50
2023-01-30T19:18:40.735Z,28.40
2023-01-30T19:23:43.533Z,28.80
2023-01-30T19:28:46.688Z,28.60
2023-01-30T19:33:56.093Z,28.10
2023-01-30T19:38:59.887Z,27.90
2023-01-30T19:44:04.970Z,27.90
2023-01-30T19:49:09.143Z,27.80
2023-01-30T19:54:13.065Z,27.80
2023-01-30T19:59:16.818Z,28.00
2023-01-30T20:04:21.085Z,28.00
2023-01-30T20:09:23.975Z,27.90
2023-01-30T20:14:27.001Z,27.90
2023-01-30T20:19:31.247Z,27.80
2023-01-30T20:24:34.185Z,27.70
2023-01-30T20:29:37.087Z,27.70
2023-01-30T20:34:41.304Z,27.60
2023-01-30T20:39:44.141Z,27.60
2023-01-30T20:44:46.984Z,27.70
2023-01-30T20:49:51.149Z,27.80
2023-01-30T20:54:54.916Z,27.80
2023-01-30T20:59:57.947Z,27.80
2023-01-30T21:05:02.665Z,28.00
2023-01-30T21:10:06.401Z,28.00
2023-01-30T21:15:10.291Z,28.00
2023-01-30T21:20:14.561Z,27.80
2023-01-30T21:25:18.921Z,28.00
2023-01-30T21:30:22.028Z,28.00
2023-01-30T21:35:26.301Z,28.10
2023-01-30T21:40:46.635Z,28.20
2023-01-30T21:45:49.592Z,28.20
2023-01-30T21:50:53.820Z,28.30
2023-01-30T21:55:56.877Z,28.30
2023-01-30T22:01:06.109Z,28.40
2023-01-30T22:06:11.399Z,28.40
2023-01-30T22:11:16.400Z,28.50
2023-01-30T22:16:22.136Z,28.60
2023-01-30T22:21:28.051Z,28.70
2023-01-30T22:26:31.182Z,28.70
2023-01-30T22:31:35.509Z,28.80
2023-01-30T22:36:39.821Z,28.80
2023-01-30T22:41:42.694Z,28.90
2023-01-30T22:46:45.570Z,28.90
2023-01-30T22:51:49.732Z,29.00
2023-01-30T22:56:52.693Z,29.00
2023-01-30T23:01:55.558Z,29.20
2023-01-30T23:06:59.793Z,29.30
2023-01-30T23:12:20.274Z,29.30
2023-01-30T23:17:40.561Z,29.40
2023-01-30T23:22:45.190Z,29.40
2023-01-30T23:27:49.128Z,29.40
2023-01-30T23:32:51.971Z,29.40
2023-01-30T23:38:13.910Z,29.40
2023-01-30T23:43:17.397Z,29.40
2023-01-30T23:48:20.189Z,29.40
2023-01-30T23:53:24.356Z,29.40
2023-01-30T23:58:27.686Z,29.40
